sensor_id;sensor_type;location;lat;lon;timestamp;P1;durP1;ratioP1;P2;durP2;ratioP2
3924;SDS011;1977;52.274;10.518;2023-08-31T00:01:32;5.30;;;4.90;;
3924;SDS011;1977;52.274;10.518;2023-08-31T00:03:59;5.60;;;5.10;;
3924;SDS011;1977;52.274;10.518;2023-08-31T00:06:26;5.17;;;4.67;;
3924;SDS011;1977;52.274;10.518;2023-08-31T00:08:53;5.87;;;5.47;;
3924;SDS011;1977;52.274;10.518;2023-08-31T00:11:20;4.73;;;4.43;;
3924;SDS011;1977;52.274;10.518;2023-08-31T00:13:47;5.23;;;4.70;;
3924;SDS011;1977;52.274;10.518;2023-08-31T00:16:15;5.97;;;4.73;;
3924;SDS011;1977;52.274;10.518;2023-08-31T00:18:41;7.23;;;4.90;;
3924;SDS011;1977;52.274;10.518;2023-08-31T00:21:10;5.07;;;4.67;;
3924;SDS011;1977;52.274;10.518;2023-08-31T00:23:36;5.13;;;4.83;;
3924;SDS011;1977;52.274;10.518;2023-08-31T00:26:03;4.87;;;4.50;;
3924;SDS011;1977;52.274;10.518;2023-08-31T00:28:31;5.20;;;4.90;;
3924;SDS011;1977;52.274;10.518;2023-08-31T00:30:59;5.33;;;4.83;;
3924;SDS011;1977;52.274;10.518;2023-08-31T00:33:29;6.23;;;5.70;;
3924;SDS011;1977;52.274;10.518;2023-08-31T00:35:58;5.53;;;5.00;;
3924;SDS011;1977;52.274;10.518;2023-08-31T00:38:26;6.50;;;4.80;;
3924;SDS011;1977;52.274;10.518;2023-08-31T00:40:53;6.00;;;5.17;;
3924;SDS011;1977;52.274;10.518;2023-08-31T00:43:20;5.23;;;4.77;;
3924;SDS011;1977;52.274;10.518;2023-08-31T00:45:49;6.00;;;5.50;;
3924;SDS011;1977;52.274;10.518;2023-08-31T00:48:17;5.20;;;4.80;;
3924;SDS011;1977;52.274;10.518;2023-08-31T00:50:46;5.53;;;5.13;;
3924;SDS011;1977;52.274;10.518;2023-08-31T00:53:14;6.00;;;5.50;;
3924;SDS011;1977;52.274;10.518;2023-08-31T00:55:42;6.73;;;6.13;;
3924;SDS011;1977;52.274;10.518;2023-08-31T00:58:10;5.73;;;5.17;;
3924;SDS011;1977;52.274;10.518;2023-08-31T01:00:40;4.93;;;4.63;;
3924;SDS011;1977;52.274;10.518;2023-08-31T01:03:15;6.80;;;5.33;;
3924;SDS011;1977;52.274;10.518;2023-08-31T01:05:52;6.27;;;5.77;;
3924;SDS011;1977;52.274;10.518;2023-08-31T01:08:27;5.63;;;5.13;;
3924;SDS011;1977;52.274;10.518;2023-08-31T01:11:03;5.90;;;5.40;;
3924;SDS011;1977;52.274;10.518;2023-08-31T01:13:41;6.47;;;5.87;;
3924;SDS011;1977;52.274;10.518;2023-08-31T01:16:15;6.47;;;5.97;;
3924;SDS011;1977;52.274;10.518;2023-08-31T01:18:43;9.20;;;5.80;;
3924;SDS011;1977;52.274;10.518;2023-08-31T01:21:16;6.60;;;6.10;;
3924;SDS011;1977;52.274;10.518;2023-08-31T01:23:51;5.53;;;5.13;;
3924;SDS011;1977;52.274;10.518;2023-08-31T01:26:18;6.07;;;5.57;;
3924;SDS011;1977;52.274;10.518;2023-08-31T01:28:45;6.17;;;5.60;;
3924;SDS011;1977;52.274;10.518;2023-08-31T01:31:13;6.50;;;5.40;;
3924;SDS011;1977;52.274;10.518;2023-08-31T01:33:40;5.43;;;4.93;;
3924;SDS011;1977;52.274;10.518;2023-08-31T01:36:07;5.73;;;5.33;;
3924;SDS011;1977;52.274;10.518;2023-08-31T01:38:40;5.43;;;4.93;;
3924;SDS011;1977;52.274;10.518;2023-08-31T01:41:12;12.30;;;5.77;;
3924;SDS011;1977;52.274;10.518;2023-08-31T01:43:42;6.03;;;5.43;;
3924;SDS011;1977;52.274;10.518;2023-08-31T01:46:10;7.57;;;5.70;;
3924;SDS011;1977;52.274;10.518;2023-08-31T01:48:38;6.37;;;5.60;;
3924;SDS011;1977;52.274;10.518;2023-08-31T01:51:06;6.40;;;5.27;;
3924;SDS011;1977;52.274;10.518;2023-08-31T01:53:33;6.27;;;5.03;;
3924;SDS011;1977;52.274;10.518;2023-08-31T01:56:00;6.70;;;6.00;;
3924;SDS011;1977;52.274;10.518;2023-08-31T01:58:28;5.60;;;4.97;;
3924;SDS011;1977;52.274;10.518;2023-08-31T02:00:55;8.07;;;6.20;;
3924;SDS011;1977;52.274;10.518;2023-08-31T02:03:22;6.30;;;5.80;;
3924;SDS011;1977;52.274;10.518;2023-08-31T02:05:49;7.10;;;5.57;;
3924;SDS011;1977;52.274;10.518;2023-08-31T02:08:15;8.03;;;5.53;;
3924;SDS011;1977;52.274;10.518;2023-08-31T02:10:43;6.03;;;5.63;;
3924;SDS011;1977;52.274;10.518;2023-08-31T02:13:09;6.60;;;5.93;;
3924;SDS011;1977;52.274;10.518;2023-08-31T02:15:38;6.60;;;5.53;;
3924;SDS011;1977;52.274;10.518;2023-08-31T02:18:04;8.63;;;6.50;;
3924;SDS011;1977;52.274;10.518;2023-08-31T02:20:31;9.87;;;6.53;;
3924;SDS011;1977;52.274;10.518;2023-08-31T02:22:59;6.60;;;6.00;;
3924;SDS011;1977;52.274;10.518;2023-08-31T02:25:26;7.43;;;6.27;;
3924;SDS011;1977;52.274;10.518;2023-08-31T02:27:53;9.37;;;7.20;;
3924;SDS011;1977;52.274;10.518;2023-08-31T02:30:20;7.10;;;6.40;;
3924;SDS011;1977;52.274;10.518;2023-08-31T02:32:48;6.93;;;6.33;;
3924;SDS011;1977;52.274;10.518;2023-08-31T02:35:15;8.10;;;7.03;;
3924;SDS011;1977;52.274;10.518;2023-08-31T02:37:42;10.00;;;6.63;;
3924;SDS011;1977;52.274;10.518;2023-08-31T02:40:09;7.20;;;6.20;;
3924;SDS011;1977;52.274;10.518;2023-08-31T02:42:36;7.10;;;6.50;;
3924;SDS011;1977;52.274;10.518;2023-08-31T02:45:03;6.90;;;6.30;;
3924;SDS011;1977;52.274;10.518;2023-08-31T02:47:31;13.73;;;6.57;;
3924;SDS011;1977;52.274;10.518;2023-08-31T02:49:59;7.00;;;6.40;;
3924;SDS011;1977;52.274;10.518;2023-08-31T02:52:26;9.17;;;6.67;;
3924;SDS011;1977;52.274;10.518;2023-08-31T02:54:52;6.90;;;6.17;;
3924;SDS011;1977;52.274;10.518;2023-08-31T02:57:20;7.90;;;5.90;;
3924;SDS011;1977;52.274;10.518;2023-08-31T02:59:49;9.67;;;6.37;;
3924;SDS011;1977;52.274;10.518;2023-08-31T03:02:16;7.07;;;6.40;;
3924;SDS011;1977;52.274;10.518;2023-08-31T03:04:43;6.97;;;6.37;;
3924;SDS011;1977;52.274;10.518;2023-08-31T03:07:11;13.93;;;7.43;;
3924;SDS011;1977;52.274;10.518;2023-08-31T03:09:40;10.90;;;6.70;;
3924;SDS011;1977;52.274;10.518;2023-08-31T03:12:07;8.50;;;7.63;;
3924;SDS011;1977;52.274;10.518;2023-08-31T03:14:34;6.50;;;5.93;;
3924;SDS011;1977;52.274;10.518;2023-08-31T03:17:00;11.50;;;7.00;;
3924;SDS011;1977;52.274;10.518;2023-08-31T03:19:27;7.53;;;6.87;;
3924;SDS011;1977;52.274;10.518;2023-08-31T03:21:54;8.90;;;6.53;;
3924;SDS011;1977;52.274;10.518;2023-08-31T03:24:22;8.40;;;7.07;;
3924;SDS011;1977;52.274;10.518;2023-08-31T03:26:49;7.43;;;6.63;;
3924;SDS011;1977;52.274;10.518;2023-08-31T03:29:15;9.53;;;7.20;;
3924;SDS011;1977;52.274;10.518;2023-08-31T03:31:42;8.87;;;7.60;;
3924;SDS011;1977;52.274;10.518;2023-08-31T03:34:09;8.37;;;7.57;;
3924;SDS011;1977;52.274;10.518;2023-08-31T03:36:35;7.33;;;6.63;;
3924;SDS011;1977;52.274;10.518;2023-08-31T03:39:03;7.87;;;7.17;;
3924;SDS011;1977;52.274;10.518;2023-08-31T03:41:31;10.83;;;7.53;;
3924;SDS011;1977;52.274;10.518;2023-08-31T03:43:58;8.77;;;7.80;;
3924;SDS011;1977;52.274;10.518;2023-08-31T03:46:24;11.30;;;8.70;;
3924;SDS011;1977;52.274;10.518;2023-08-31T03:48:51;8.23;;;7.40;;
3924;SDS011;1977;52.274;10.518;2023-08-31T03:51:18;10.63;;;7.37;;
3924;SDS011;1977;52.274;10.518;2023-08-31T03:53:44;11.60;;;7.10;;
3924;SDS011;1977;52.274;10.518;2023-08-31T03:56:11;9.77;;;7.20;;
3924;SDS011;1977;52.274;10.518;2023-08-31T03:58:39;9.23;;;7.70;;
3924;SDS011;1977;52.274;10.518;2023-08-31T04:01:06;8.17;;;7.30;;
3924;SDS011;1977;52.274;10.518;2023-08-31T04:03:35;9.37;;;7.13;;
3924;SDS011;1977;52.274;10.518;2023-08-31T04:06:01;8.67;;;7.03;;
3924;SDS011;1977;52.274;10.518;2023-08-31T04:08:30;7.50;;;6.70;;
3924;SDS011;1977;52.274;10.518;2023-08-31T04:10:56;9.77;;;7.27;;
3924;SDS011;1977;52.274;10.518;2023-08-31T04:13:23;10.30;;;8.70;;
3924;SDS011;1977;52.274;10.518;2023-08-31T04:15:52;8.80;;;7.13;;
3924;SDS011;1977;52.274;10.518;2023-08-31T04:18:20;8.50;;;6.80;;
3924;SDS011;1977;52.274;10.518;2023-08-31T04:20:48;7.70;;;6.90;;
3924;SDS011;1977;52.274;10.518;2023-08-31T04:23:16;8.97;;;7.60;;
3924;SDS011;1977;52.274;10.518;2023-08-31T04:25:43;7.93;;;7.13;;
3924;SDS011;1977;52.274;10.518;2023-08-31T04:28:10;8.80;;;7.50;;
3924;SDS011;1977;52.274;10.518;2023-08-31T04:30:37;9.40;;;7.93;;
3924;SDS011;1977;52.274;10.518;2023-08-31T04:33:06;8.80;;;7.47;;
3924;SDS011;1977;52.274;10.518;2023-08-31T04:35:33;9.90;;;7.67;;
3924;SDS011;1977;52.274;10.518;2023-08-31T04:38:00;7.77;;;6.97;;
3924;SDS011;1977;52.274;10.518;2023-08-31T04:40:27;9.00;;;8.20;;
3924;SDS011;1977;52.274;10.518;2023-08-31T04:42:54;9.00;;;8.00;;
3924;SDS011;1977;52.274;10.518;2023-08-31T04:45:21;9.23;;;8.17;;
3924;SDS011;1977;52.274;10.518;2023-08-31T04:47:48;9.90;;;7.90;;
3924;SDS011;1977;52.274;10.518;2023-08-31T04:50:17;10.13;;;8.23;;
3924;SDS011;1977;52.274;10.518;2023-08-31T04:52:44;9.10;;;7.93;;
3924;SDS011;1977;52.274;10.518;2023-08-31T04:55:12;9.83;;;8.77;;
3924;SDS011;1977;52.274;10.518;2023-08-31T04:57:39;10.70;;;8.10;;
3924;SDS011;1977;52.274;10.518;2023-08-31T05:00:06;10.03;;;7.90;;
3924;SDS011;1977;52.274;10.518;2023-08-31T05:02:35;9.10;;;8.00;;
3924;SDS011;1977;52.274;10.518;2023-08-31T05:05:01;8.97;;;8.17;;
3924;SDS011;1977;52.274;10.518;2023-08-31T05:07:30;10.90;;;9.30;;
3924;SDS011;1977;52.274;10.518;2023-08-31T05:09:57;11.17;;;9.20;;
3924;SDS011;1977;52.274;10.518;2023-08-31T05:12:24;11.33;;;8.40;;
3924;SDS011;1977;52.274;10.518;2023-08-31T05:14:51;9.47;;;8.57;;
3924;SDS011;1977;52.274;10.518;2023-08-31T05:17:17;10.50;;;8.60;;
3924;SDS011;1977;52.274;10.518;2023-08-31T05:19:44;9.57;;;8.60;;
3924;SDS011;1977;52.274;10.518;2023-08-31T05:22:12;12.57;;;10.13;;
3924;SDS011;1977;52.274;10.518;2023-08-31T05:24:40;11.73;;;9.13;;
3924;SDS011;1977;52.274;10.518;2023-08-31T05:27:07;9.73;;;8.73;;
3924;SDS011;1977;52.274;10.518;2023-08-31T05:29:34;11.67;;;8.30;;
3924;SDS011;1977;52.274;10.518;2023-08-31T05:32:00;9.77;;;8.60;;
3924;SDS011;1977;52.274;10.518;2023-08-31T05:34:27;11.13;;;7.50;;
3924;SDS011;1977;52.274;10.518;2023-08-31T05:36:55;9.30;;;7.90;;
3924;SDS011;1977;52.274;10.518;2023-08-31T05:39:22;8.70;;;7.80;;
3924;SDS011;1977;52.274;10.518;2023-08-31T05:41:50;9.57;;;8.50;;
3924;SDS011;1977;52.274;10.518;2023-08-31T05:44:17;12.23;;;8.10;;
3924;SDS011;1977;52.274;10.518;2023-08-31T05:46:44;9.53;;;8.53;;
3924;SDS011;1977;52.274;10.518;2023-08-31T05:49:10;8.80;;;7.90;;
3924;SDS011;1977;52.274;10.518;2023-08-31T05:51:37;10.40;;;9.27;;
3924;SDS011;1977;52.274;10.518;2023-08-31T05:54:04;8.90;;;7.97;;
3924;SDS011;1977;52.274;10.518;2023-08-31T05:56:35;10.17;;;8.80;;
3924;SDS011;1977;52.274;10.518;2023-08-31T05:59:04;11.33;;;9.57;;
3924;SDS011;1977;52.274;10.518;2023-08-31T06:01:30;10.07;;;9.00;;
3924;SDS011;1977;52.274;10.518;2023-08-31T06:03:57;9.60;;;8.60;;
3924;SDS011;1977;52.274;10.518;2023-08-31T06:06:24;9.30;;;8.40;;
3924;SDS011;1977;52.274;10.518;2023-08-31T06:08:51;11.40;;;8.77;;
3924;SDS011;1977;52.274;10.518;2023-08-31T06:11:18;12.03;;;9.60;;
3924;SDS011;1977;52.274;10.518;2023-08-31T06:13:46;10.27;;;9.20;;
3924;SDS011;1977;52.274;10.518;2023-08-31T06:16:14;14.20;;;9.63;;
3924;SDS011;1977;52.274;10.518;2023-08-31T06:18:41;12.97;;;9.20;;
3924;SDS011;1977;52.274;10.518;2023-08-31T06:21:08;12.23;;;9.53;;
3924;SDS011;1977;52.274;10.518;2023-08-31T06:23:35;10.83;;;8.83;;
3924;SDS011;1977;52.274;10.518;2023-08-31T06:26:02;10.10;;;9.10;;
3924;SDS011;1977;52.274;10.518;2023-08-31T06:28:29;10.17;;;9.20;;
3924;SDS011;1977;52.274;10.518;2023-08-31T06:30:55;12.43;;;9.03;;
3924;SDS011;1977;52.274;10.518;2023-08-31T06:33:23;9.77;;;8.77;;
3924;SDS011;1977;52.274;10.518;2023-08-31T06:35:50;9.70;;;8.70;;
3924;SDS011;1977;52.274;10.518;2023-08-31T06:38:17;9.63;;;7.97;;
3924;SDS011;1977;52.274;10.518;2023-08-31T06:40:44;10.13;;;9.13;;
3924;SDS011;1977;52.274;10.518;2023-08-31T06:43:11;12.07;;;9.30;;
3924;SDS011;1977;52.274;10.518;2023-08-31T06:45:38;9.63;;;8.73;;
3924;SDS011;1977;52.274;10.518;2023-08-31T06:48:05;10.13;;;9.17;;
3924;SDS011;1977;52.274;10.518;2023-08-31T06:50:34;9.07;;;8.13;;
3924;SDS011;1977;52.274;10.518;2023-08-31T06:53:01;8.97;;;8.07;;
3924;SDS011;1977;52.274;10.518;2023-08-31T06:55:29;9.17;;;8.37;;
3924;SDS011;1977;52.274;10.518;2023-08-31T06:57:57;8.87;;;8.07;;
3924;SDS011;1977;52.274;10.518;2023-08-31T07:00:23;8.37;;;7.57;;
3924;SDS011;1977;52.274;10.518;2023-08-31T07:02:50;8.57;;;7.70;;
3924;SDS011;1977;52.274;10.518;2023-08-31T07:05:18;8.87;;;8.07;;
3924;SDS011;1977;52.274;10.518;2023-08-31T07:07:51;10.33;;;8.50;;
3924;SDS011;1977;52.274;10.518;2023-08-31T07:10:19;8.30;;;7.50;;
3924;SDS011;1977;52.274;10.518;2023-08-31T07:12:45;8.40;;;7.60;;
3924;SDS011;1977;52.274;10.518;2023-08-31T07:15:12;8.40;;;7.17;;
3924;SDS011;1977;52.274;10.518;2023-08-31T07:17:39;8.27;;;7.57;;
3924;SDS011;1977;52.274;10.518;2023-08-31T07:20:06;6.43;;;6.03;;
3924;SDS011;1977;52.274;10.518;2023-08-31T07:22:34;8.87;;;7.70;;
3924;SDS011;1977;52.274;10.518;2023-08-31T07:25:02;7.90;;;7.27;;
3924;SDS011;1977;52.274;10.518;2023-08-31T07:27:31;7.97;;;7.17;;
3924;SDS011;1977;52.274;10.518;2023-08-31T07:29:57;7.40;;;6.83;;
3924;SDS011;1977;52.274;10.518;2023-08-31T07:32:24;7.90;;;6.90;;
3924;SDS011;1977;52.274;10.518;2023-08-31T07:34:51;6.33;;;5.73;;
3924;SDS011;1977;52.274;10.518;2023-08-31T07:37:17;8.07;;;6.93;;
3924;SDS011;1977;52.274;10.518;2023-08-31T07:39:44;6.30;;;5.80;;
3924;SDS011;1977;52.274;10.518;2023-08-31T07:42:12;6.57;;;5.80;;
3924;SDS011;1977;52.274;10.518;2023-08-31T07:44:39;6.17;;;5.67;;
3924;SDS011;1977;52.274;10.518;2023-08-31T07:47:06;6.50;;;5.43;;
3924;SDS011;1977;52.274;10.518;2023-08-31T07:49:33;6.30;;;5.70;;
3924;SDS011;1977;52.274;10.518;2023-08-31T07:52:00;5.40;;;5.10;;
3924;SDS011;1977;52.274;10.518;2023-08-31T07:54:28;9.10;;;6.43;;
3924;SDS011;1977;52.274;10.518;2023-08-31T07:56:54;5.27;;;4.90;;
3924;SDS011;1977;52.274;10.518;2023-08-31T07:59:22;5.70;;;5.30;;
3924;SDS011;1977;52.274;10.518;2023-08-31T08:01:49;5.40;;;4.93;;
3924;SDS011;1977;52.274;10.518;2023-08-31T08:04:16;5.57;;;5.07;;
3924;SDS011;1977;52.274;10.518;2023-08-31T08:06:44;5.17;;;4.80;;
3924;SDS011;1977;52.274;10.518;2023-08-31T08:09:11;5.73;;;5.33;;
3924;SDS011;1977;52.274;10.518;2023-08-31T08:11:38;5.73;;;5.23;;
3924;SDS011;1977;52.274;10.518;2023-08-31T08:14:05;5.20;;;4.80;;
3924;SDS011;1977;52.274;10.518;2023-08-31T08:16:33;4.73;;;4.43;;
3924;SDS011;1977;52.274;10.518;2023-08-31T08:19:01;5.80;;;4.40;;
3924;SDS011;1977;52.274;10.518;2023-08-31T08:21:28;4.10;;;3.80;;
3924;SDS011;1977;52.274;10.518;2023-08-31T08:23:55;3.93;;;3.63;;
3924;SDS011;1977;52.274;10.518;2023-08-31T08:26:22;3.57;;;3.37;;
3924;SDS011;1977;52.274;10.518;2023-08-31T08:28:48;4.03;;;3.80;;
3924;SDS011;1977;52.274;10.518;2023-08-31T08:31:15;4.13;;;3.83;;
3924;SDS011;1977;52.274;10.518;2023-08-31T08:33:44;4.50;;;3.77;;
3924;SDS011;1977;52.274;10.518;2023-08-31T08:36:10;3.47;;;3.27;;
3924;SDS011;1977;52.274;10.518;2023-08-31T08:38:37;3.80;;;3.60;;
3924;SDS011;1977;52.274;10.518;2023-08-31T08:41:04;4.00;;;3.80;;
3924;SDS011;1977;52.274;10.518;2023-08-31T08:43:32;3.60;;;3.40;;
3924;SDS011;1977;52.274;10.518;2023-08-31T08:46:00;4.43;;;3.83;;
3924;SDS011;1977;52.274;10.518;2023-08-31T08:48:31;4.27;;;4.07;;
3924;SDS011;1977;52.274;10.518;2023-08-31T08:51:01;3.83;;;3.63;;
3924;SDS011;1977;52.274;10.518;2023-08-31T08:53:29;3.70;;;3.40;;
3924;SDS011;1977;52.274;10.518;2023-08-31T08:55:56;5.50;;;3.50;;
3924;SDS011;1977;52.274;10.518;2023-08-31T08:58:23;3.77;;;3.47;;
3924;SDS011;1977;52.274;10.518;2023-08-31T09:00:50;3.67;;;3.47;;
3924;SDS011;1977;52.274;10.518;2023-08-31T09:03:18;3.07;;;2.87;;
3924;SDS011;1977;52.274;10.518;2023-08-31T09:05:45;3.10;;;2.90;;
3924;SDS011;1977;52.274;10.518;2023-08-31T09:08:13;3.90;;;3.60;;
3924;SDS011;1977;52.274;10.518;2023-08-31T09:10:41;3.77;;;3.40;;
3924;SDS011;1977;52.274;10.518;2023-08-31T09:13:09;3.70;;;3.40;;
3924;SDS011;1977;52.274;10.518;2023-08-31T09:15:39;4.97;;;2.73;;
3924;SDS011;1977;52.274;10.518;2023-08-31T09:18:06;2.93;;;2.83;;
3924;SDS011;1977;52.274;10.518;2023-08-31T09:20:42;3.23;;;3.03;;
3924;SDS011;1977;52.274;10.518;2023-08-31T09:23:10;3.47;;;3.30;;
3924;SDS011;1977;52.274;10.518;2023-08-31T09:25:41;3.57;;;3.37;;
3924;SDS011;1977;52.274;10.518;2023-08-31T09:28:09;3.70;;;3.40;;
3924;SDS011;1977;52.274;10.518;2023-08-31T09:30:37;3.00;;;2.80;;
3924;SDS011;1977;52.274;10.518;2023-08-31T09:33:05;3.30;;;2.93;;
3924;SDS011;1977;52.274;10.518;2023-08-31T09:35:33;4.10;;;3.10;;
3924;SDS011;1977;52.274;10.518;2023-08-31T09:38:00;3.93;;;3.03;;
3924;SDS011;1977;52.274;10.518;2023-08-31T09:40:27;2.77;;;2.67;;
3924;SDS011;1977;52.274;10.518;2023-08-31T09:42:55;4.30;;;2.70;;
3924;SDS011;1977;52.274;10.518;2023-08-31T09:45:25;2.97;;;2.77;;
3924;SDS011;1977;52.274;10.518;2023-08-31T09:47:55;2.60;;;2.50;;
3924;SDS011;1977;52.274;10.518;2023-08-31T09:50:22;2.87;;;2.60;;
3924;SDS011;1977;52.274;10.518;2023-08-31T09:52:50;2.50;;;2.40;;
3924;SDS011;1977;52.274;10.518;2023-08-31T09:55:20;2.63;;;2.53;;
3924;SDS011;1977;52.274;10.518;2023-08-31T09:57:49;2.73;;;2.33;;
3924;SDS011;1977;52.274;10.518;2023-08-31T10:00:18;2.60;;;2.40;;
3924;SDS011;1977;52.274;10.518;2023-08-31T10:02:46;2.67;;;2.50;;
3924;SDS011;1977;52.274;10.518;2023-08-31T10:05:13;2.43;;;2.23;;
3924;SDS011;1977;52.274;10.518;2023-08-31T10:07:41;2.03;;;1.93;;
3924;SDS011;1977;52.274;10.518;2023-08-31T10:10:08;2.93;;;2.73;;
3924;SDS011;1977;52.274;10.518;2023-08-31T10:12:36;2.50;;;2.30;;
3924;SDS011;1977;52.274;10.518;2023-08-31T10:15:05;2.67;;;2.47;;
3924;SDS011;1977;52.274;10.518;2023-08-31T10:17:34;2.47;;;2.37;;
3924;SDS011;1977;52.274;10.518;2023-08-31T10:20:01;2.50;;;2.40;;
3924;SDS011;1977;52.274;10.518;2023-08-31T10:22:29;3.30;;;2.70;;
3924;SDS011;1977;52.274;10.518;2023-08-31T10:24:57;2.73;;;2.50;;
3924;SDS011;1977;52.274;10.518;2023-08-31T10:27:24;2.10;;;1.97;;
3924;SDS011;1977;52.274;10.518;2023-08-31T10:29:51;2.20;;;2.10;;
3924;SDS011;1977;52.274;10.518;2023-08-31T10:32:18;2.53;;;2.43;;
3924;SDS011;1977;52.274;10.518;2023-08-31T10:37:40;2.47;;;2.27;;
3924;SDS011;1977;52.274;10.518;2023-08-31T10:40:07;4.00;;;2.30;;
3924;SDS011;1977;52.274;10.518;2023-08-31T10:42:43;2.73;;;2.50;;
3924;SDS011;1977;52.274;10.518;2023-08-31T10:45:12;2.73;;;2.53;;
3924;SDS011;1977;52.274;10.518;2023-08-31T10:47:39;2.50;;;2.40;;
3924;SDS011;1977;52.274;10.518;2023-08-31T10:50:16;2.10;;;2.00;;
3924;SDS011;1977;52.274;10.518;2023-08-31T10:52:46;3.80;;;2.23;;
3924;SDS011;1977;52.274;10.518;2023-08-31T10:55:14;2.60;;;2.40;;
3924;SDS011;1977;52.274;10.518;2023-08-31T10:57:41;2.90;;;2.63;;
3924;SDS011;1977;52.274;10.518;2023-08-31T11:00:08;2.27;;;2.07;;
3924;SDS011;1977;52.274;10.518;2023-08-31T11:02:37;2.23;;;2.13;;
3924;SDS011;1977;52.274;10.518;2023-08-31T11:05:08;2.47;;;2.30;;
3924;SDS011;1977;52.274;10.518;2023-08-31T11:07:36;2.47;;;2.30;;
3924;SDS011;1977;52.274;10.518;2023-08-31T11:10:13;2.20;;;2.10;;
3924;SDS011;1977;52.274;10.518;2023-08-31T11:12:42;3.80;;;2.30;;
3924;SDS011;1977;52.274;10.518;2023-08-31T11:15:13;2.77;;;2.60;;
3924;SDS011;1977;52.274;10.518;2023-08-31T11:17:40;2.93;;;2.27;;
3924;SDS011;1977;52.274;10.518;2023-08-31T11:20:08;2.43;;;2.27;;
3924;SDS011;1977;52.274;10.518;2023-08-31T11:22:39;4.20;;;2.33;;
3924;SDS011;1977;52.274;10.518;2023-08-31T11:25:07;3.70;;;3.30;;
3924;SDS011;1977;52.274;10.518;2023-08-31T11:27:38;3.20;;;3.00;;
3924;SDS011;1977;52.274;10.518;2023-08-31T11:30:10;3.00;;;2.80;;
3924;SDS011;1977;52.274;10.518;2023-08-31T11:32:43;3.87;;;2.97;;
3924;SDS011;1977;52.274;10.518;2023-08-31T11:35:10;3.30;;;3.00;;
3924;SDS011;1977;52.274;10.518;2023-08-31T11:37:37;3.13;;;3.03;;
3924;SDS011;1977;52.274;10.518;2023-08-31T11:40:04;3.00;;;2.80;;
3924;SDS011;1977;52.274;10.518;2023-08-31T11:42:32;3.87;;;3.50;;
3924;SDS011;1977;52.274;10.518;2023-08-31T11:45:00;3.53;;;3.33;;
3924;SDS011;1977;52.274;10.518;2023-08-31T11:47:32;3.30;;;2.60;;
3924;SDS011;1977;52.274;10.518;2023-08-31T11:50:00;4.20;;;3.37;;
3924;SDS011;1977;52.274;10.518;2023-08-31T11:52:30;3.20;;;3.00;;
3924;SDS011;1977;52.274;10.518;2023-08-31T11:54:57;3.43;;;3.27;;
3924;SDS011;1977;52.274;10.518;2023-08-31T11:57:25;3.77;;;3.57;;
3924;SDS011;1977;52.274;10.518;2023-08-31T11:59:54;3.27;;;3.07;;
3924;SDS011;1977;52.274;10.518;2023-08-31T12:02:22;3.17;;;3.00;;
3924;SDS011;1977;52.274;10.518;2023-08-31T12:04:49;3.33;;;3.13;;
3924;SDS011;1977;52.274;10.518;2023-08-31T12:07:18;4.13;;;3.80;;
3924;SDS011;1977;52.274;10.518;2023-08-31T12:10:14;3.40;;;3.23;;
3924;SDS011;1977;52.274;10.518;2023-08-31T12:12:41;3.90;;;3.60;;
3924;SDS011;1977;52.274;10.518;2023-08-31T12:15:08;3.23;;;2.93;;
3924;SDS011;1977;52.274;10.518;2023-08-31T12:17:38;3.70;;;3.50;;
3924;SDS011;1977;52.274;10.518;2023-08-31T12:20:06;2.80;;;2.70;;
3924;SDS011;1977;52.274;10.518;2023-08-31T12:22:34;4.17;;;3.93;;
3924;SDS011;1977;52.274;10.518;2023-08-31T12:25:01;3.63;;;3.43;;
3924;SDS011;1977;52.274;10.518;2023-08-31T12:27:28;3.73;;;3.53;;
3924;SDS011;1977;52.274;10.518;2023-08-31T12:29:56;4.17;;;3.83;;
3924;SDS011;1977;52.274;10.518;2023-08-31T12:32:23;3.87;;;3.57;;
3924;SDS011;1977;52.274;10.518;2023-08-31T12:34:51;6.70;;;3.70;;
3924;SDS011;1977;52.274;10.518;2023-08-31T12:37:17;4.60;;;4.20;;
3924;SDS011;1977;52.274;10.518;2023-08-31T12:39:44;3.97;;;3.70;;
3924;SDS011;1977;52.274;10.518;2023-08-31T12:42:11;4.07;;;3.70;;
3924;SDS011;1977;52.274;10.518;2023-08-31T12:44:38;4.00;;;3.27;;
3924;SDS011;1977;52.274;10.518;2023-08-31T12:47:05;3.60;;;3.30;;
3924;SDS011;1977;52.274;10.518;2023-08-31T12:49:32;3.67;;;3.03;;
3924;SDS011;1977;52.274;10.518;2023-08-31T12:52:00;3.90;;;3.70;;
3924;SDS011;1977;52.274;10.518;2023-08-31T12:54:28;5.23;;;3.33;;
3924;SDS011;1977;52.274;10.518;2023-08-31T12:56:57;3.77;;;3.47;;
3924;SDS011;1977;52.274;10.518;2023-08-31T12:59:24;4.13;;;3.83;;
3924;SDS011;1977;52.274;10.518;2023-08-31T13:01:51;3.50;;;3.30;;
3924;SDS011;1977;52.274;10.518;2023-08-31T13:04:18;3.60;;;3.30;;
3924;SDS011;1977;52.274;10.518;2023-08-31T13:06:45;4.97;;;3.60;;
3924;SDS011;1977;52.274;10.518;2023-08-31T13:09:13;3.63;;;3.43;;
3924;SDS011;1977;52.274;10.518;2023-08-31T13:11:40;3.93;;;3.53;;
3924;SDS011;1977;52.274;10.518;2023-08-31T13:14:07;2.70;;;2.60;;
3924;SDS011;1977;52.274;10.518;2023-08-31T13:16:34;3.63;;;2.90;;
3924;SDS011;1977;52.274;10.518;2023-08-31T13:19:02;2.80;;;2.50;;
3924;SDS011;1977;52.274;10.518;2023-08-31T13:21:28;2.67;;;2.47;;
3924;SDS011;1977;52.274;10.518;2023-08-31T13:23:55;2.30;;;2.20;;
3924;SDS011;1977;52.274;10.518;2023-08-31T13:26:23;2.50;;;2.30;;
3924;SDS011;1977;52.274;10.518;2023-08-31T13:28:50;2.33;;;2.23;;
3924;SDS011;1977;52.274;10.518;2023-08-31T13:31:17;1.87;;;1.77;;
3924;SDS011;1977;52.274;10.518;2023-08-31T13:33:44;2.00;;;1.80;;
3924;SDS011;1977;52.274;10.518;2023-08-31T13:36:11;2.20;;;2.00;;
3924;SDS011;1977;52.274;10.518;2023-08-31T13:38:37;2.00;;;1.90;;
3924;SDS011;1977;52.274;10.518;2023-08-31T13:41:04;2.17;;;1.50;;
3924;SDS011;1977;52.274;10.518;2023-08-31T13:43:33;1.77;;;1.67;;
3924;SDS011;1977;52.274;10.518;2023-08-31T13:46:00;3.73;;;2.00;;
3924;SDS011;1977;52.274;10.518;2023-08-31T13:48:27;2.00;;;1.77;;
3924;SDS011;1977;52.274;10.518;2023-08-31T13:50:53;2.17;;;1.40;;
3924;SDS011;1977;52.274;10.518;2023-08-31T13:53:20;2.10;;;1.90;;
3924;SDS011;1977;52.274;10.518;2023-08-31T13:55:47;2.23;;;1.80;;
3924;SDS011;1977;52.274;10.518;2023-08-31T13:58:14;1.67;;;1.40;;
3924;SDS011;1977;52.274;10.518;2023-08-31T14:00:42;1.80;;;1.70;;
3924;SDS011;1977;52.274;10.518;2023-08-31T14:03:08;1.57;;;1.27;;
3924;SDS011;1977;52.274;10.518;2023-08-31T14:05:35;1.80;;;1.70;;
3924;SDS011;1977;52.274;10.518;2023-08-31T14:08:02;1.80;;;1.70;;
3924;SDS011;1977;52.274;10.518;2023-08-31T14:10:30;1.60;;;1.50;;
3924;SDS011;1977;52.274;10.518;2023-08-31T14:12:57;2.53;;;1.60;;
3924;SDS011;1977;52.274;10.518;2023-08-31T14:15:24;1.47;;;1.37;;
3924;SDS011;1977;52.274;10.518;2023-08-31T14:17:52;2.90;;;1.50;;
3924;SDS011;1977;52.274;10.518;2023-08-31T14:20:19;2.20;;;1.60;;
3924;SDS011;1977;52.274;10.518;2023-08-31T14:22:46;1.60;;;1.43;;
3924;SDS011;1977;52.274;10.518;2023-08-31T14:25:13;2.10;;;1.90;;
3924;SDS011;1977;52.274;10.518;2023-08-31T14:27:40;1.80;;;1.70;;
3924;SDS011;1977;52.274;10.518;2023-08-31T14:30:07;2.57;;;1.43;;
3924;SDS011;1977;52.274;10.518;2023-08-31T14:32:35;1.60;;;1.50;;
3924;SDS011;1977;52.274;10.518;2023-08-31T14:35:03;2.10;;;1.47;;
3924;SDS011;1977;52.274;10.518;2023-08-31T14:37:31;1.43;;;1.33;;
3924;SDS011;1977;52.274;10.518;2023-08-31T14:39:58;5.37;;;1.27;;
3924;SDS011;1977;52.274;10.518;2023-08-31T14:42:24;2.03;;;1.37;;
3924;SDS011;1977;52.274;10.518;2023-08-31T14:44:51;1.30;;;1.20;;
3924;SDS011;1977;52.274;10.518;2023-08-31T14:47:18;2.13;;;1.47;;
3924;SDS011;1977;52.274;10.518;2023-08-31T14:49:45;1.93;;;1.50;;
3924;SDS011;1977;52.274;10.518;2023-08-31T14:52:14;1.77;;;1.30;;
3924;SDS011;1977;52.274;10.518;2023-08-31T14:54:40;1.30;;;1.20;;
3924;SDS011;1977;52.274;10.518;2023-08-31T14:57:07;1.37;;;1.27;;
3924;SDS011;1977;52.274;10.518;2023-08-31T14:59:34;5.63;;;1.50;;
3924;SDS011;1977;52.274;10.518;2023-08-31T15:02:00;1.40;;;1.30;;
3924;SDS011;1977;52.274;10.518;2023-08-31T15:04:30;3.60;;;1.13;;
3924;SDS011;1977;52.274;10.518;2023-08-31T15:06:56;1.47;;;1.20;;